Hastings Natural History Reservation, California Weather observations

Data are for 10 minute period ending at time listed.
 Day   Time   Solar   Ave.   Ave.  Ave.  Vector  Max.   Baro.   Total    
  of    of     Rad.   Air    Rel.  Wind   Wind   Wind  Press.  Precip.   
Year   Day            Temp.  Hum.  Speed  Dir.   Gust                    
2016   (PST)  Kw/m2    F      %     mph   deg.    mph    mb.     in.     
-------------------------------------------------------------------------
 146   14:30   0.79   62.6    59    3.8   252    10.2   955.7    0.00 
 146   14:40   0.78   63.3    58    3.2   267     9.6   955.8    0.00 
 146   14:50   0.76   62.5    58    4.3   251    12.1   955.8    0.00 
 146   15:00   0.74   61.5    61    5.6   259    14.0   955.8    0.00 
 146   15:10   0.71   62.2    60    3.9   255     9.7   955.9    0.00 
 146   15:20   0.70   60.7    63    4.7   260    10.7   955.9    0.00 
 146   15:30   0.67   61.1    61    3.9   253    11.6   956.0    0.00 
 146   15:40   0.65   62.2    57    3.0   259     9.3   956.0    0.00 
 146   15:50   0.60   60.9    57    4.7   249    11.4   956.0    0.00 
 146   16:00   0.59   61.0    58    4.5   250    12.6   956.1    0.00 
 146   16:10   0.56   61.0    56    4.6   252    11.0   956.1    0.00 
 146   16:20   0.53   62.1    56    3.3   284     9.9   956.1    0.00 
 146   16:30   0.50   61.4    55    2.9   262     8.8   956.1    0.00 
 146   16:40   0.47   61.2    54    3.0   284     8.5   956.1    0.00 
 146   16:50   0.44   61.7    52    2.6   338     9.8   956.1    0.00 
 146   17:00   0.41   60.6    55    4.1   255    10.9   956.1    0.00 
 146   17:10   0.38   61.0    55    2.8   257     7.4   956.1    0.00 
 146   17:20   0.34   60.5    56    3.5   261     7.7   956.1    0.00 
 146   17:30   0.31   59.5    58    3.5   260     9.1   956.1    0.00 
 146   17:40   0.28   59.2    60    1.8   347     9.0   956.2    0.00 
 146   17:50   0.24   56.7    66    4.0   248    10.1   956.5    0.00 
 146   18:00   0.12   55.0    70    3.6   253     9.0   956.7    0.00 
 146   18:10   0.04   54.1    72    2.3   269     7.6   956.8    0.00 
 146   18:20   0.05   52.5    76    2.6   266     7.2   956.9    0.00 
 146   18:30   0.03   52.4    77    2.4   259     6.5   957.0    0.00 
 146   18:40   0.01   52.2    77    2.1   352     7.2   957.1    0.00 
 146   18:50   0.00   51.9    79    2.0   337     6.6   957.3    0.00 
 146   19:00   0.00   51.5    80    3.3   349     8.9   957.4    0.00 
 146   19:10   0.00   51.4    80    1.9   326     7.3   957.4    0.00 
 146   19:20   0.00   51.3    80    1.6   258     4.8   957.4    0.00 
 146   19:30   0.00   51.3    80    2.2   275     5.4   957.5    0.00 
 146   19:40   0.00   51.0    81    1.5   272     7.3   957.5    0.00 
 146   19:50   0.00   51.0    81    0.9   314     3.7   957.5    0.00 
 146   20:00   0.00   50.6    82    0.7   298     2.3   957.5    0.00 
 146   20:10   0.00   50.4    81    0.8   351     3.2   957.5    0.00 
 146   20:20   0.00   49.9    82    1.1   358     2.9   957.6    0.00 
 146   20:30   0.00   49.4    82    0.8    12     2.9   957.6    0.00 
 146   20:40   0.00   49.1    82    1.5    17     3.9   957.6    0.00 
 146   20:50   0.00   49.0    83    0.5   352     2.7   957.6    0.00 
 146   21:00   0.00   48.1    83    0.7   262     1.9   957.6    0.00 
 146   21:10   0.00   47.2    85    0.2   252     1.4   957.6    0.00 
 146   21:20   0.00   46.7    86    0.7   235     1.8   957.7    0.00 
 146   21:30   0.00   46.5    87    0.5   234     1.7   957.7    0.00 
 146   21:40   0.00   46.8    88    0.2   260     1.2   957.7    0.00 
 146   21:50   0.00   46.8    88    0.5    42     1.5   957.7    0.00 
 146   22:00   0.00   47.0    89    0.9    38     2.1   957.8    0.00 
 146   22:10   0.00   47.7    89    0.8   222     2.4   957.7    0.00 
 146   22:20   0.00   48.1    88    0.3     4     1.4   957.7    0.00 
 146   22:30   0.00   48.2    86    0.3    40     1.4   957.7    0.00 
 146   22:40   0.00   48.8    86    1.3   255     3.5   957.6    0.00 
 146   22:50   0.00   49.2    87    1.7   246     4.2   957.5    0.00 
 146   23:00   0.00   49.2    87    1.4   250     3.1   957.4    0.00 
 146   23:10   0.00   49.1    87    0.5   279     2.2   957.3    0.00 
 146   23:20   0.00   49.2    85    1.4     6     3.4   957.2    0.00 
 146   23:30   0.00   49.5    82    0.9   350     4.9   957.2    0.00 
 146   23:40   0.00   49.5    81    1.0   329     3.4   957.1    0.00 
 146   23:50   0.00   49.5    80    1.4   356     3.9   957.0    0.00 
 147    0:00   0.00   49.6    79    0.6    15     2.3   956.9    0.00 
 147    0:10   0.00   49.6    79    0.6   295     2.6   956.8    0.00 
 147    0:20   0.00   49.4    80    1.2   268     6.4   956.8    0.00 
 147    0:30   0.00   49.2    81    1.0   335     3.9   956.8    0.00 
 147    0:40   0.00   49.0    83    1.8   249     4.2   956.9    0.00 
 147    0:50   0.00   48.7    84    1.4   256     3.5   956.8    0.00 
 147    1:00   0.00   48.6    84    1.9   249     4.0   956.6    0.00 
 147    1:10   0.00   48.7    85    0.4   323     1.8   956.5    0.00 
 147    1:20   0.00   48.6    85    1.1   264     4.0   956.4    0.00 
 147    1:30   0.00   48.6    85    0.9   319     3.2   956.3    0.00 
 147    1:40   0.00   48.4    85    1.0   258     3.1   956.2    0.00 
 147    1:50   0.00   48.1    85    1.4   344     3.9   956.0    0.00 
 147    2:00   0.00   47.4    80    1.2    39     3.9   955.9    0.00 
 147    2:10   0.00   46.9    78    1.8    53     3.7   955.7    0.00 
 147    2:20   0.00   45.6    80    2.3    60     3.9   955.7    0.00 
 147    2:30   0.00   45.0    81    1.9    52     3.6   955.6    0.00 
 147    2:40   0.00   45.1    81    1.8    47     3.1   955.6    0.00 
 147    2:50   0.00   45.1    81    1.2    49     3.1   955.6    0.00 
 147    3:00   0.00   45.4    81    0.2    50     2.3   955.4    0.00 
 147    3:10   0.00   45.4    81    1.5    54     2.6   955.4    0.00 
 147    3:20   0.00   45.1    81    1.5    47     2.9   955.4    0.00 
 147    3:30   0.00   45.0    82    1.9    53     3.2   955.4    0.00 
 147    3:40   0.00   45.2    82    2.1    52     3.5   955.3    0.00 
 147    3:50   0.00   45.1    82    1.7    52     3.4   955.3    0.00 
 147    4:00   0.00   45.0    83    1.9    46     3.8   955.4    0.00 
 147    4:10   0.00   44.8    83    1.3    50     3.0   955.3    0.00 
 147    4:20   0.00   44.7    83    1.8    55     3.2   955.3    0.00 
 147    4:30   0.00   44.6    83    2.0    52     3.9   955.2    0.00 
 147    4:40   0.00   44.6    83    2.1    54     4.3   955.2    0.00 
 147    4:50   0.00   44.3    83    2.4    54     3.9   955.2    0.00 
 147    5:00   0.00   43.9    84    2.4    48     3.7   955.1    0.00 
 147    5:10   0.00   43.6    84    2.3    50     3.9   955.1    0.00 
 147    5:20   0.00   43.6    85    1.8    52     3.4   955.2    0.00 
 147    5:30   0.01   44.2    85    1.9    48     2.9   955.3    0.00 
 147    5:40   0.03   45.4    85    0.3    57     1.5   955.5    0.00 
 147    5:50   0.04   46.5    84    0.7    24     2.4   955.7    0.00 
 147    6:00   0.04   47.0    85    0.9   307     3.1   955.7    0.00 
 147    6:10   0.05   47.4    86    1.3   263     3.4   955.8    0.00 
 147    6:20   0.07   47.3    86    2.6   244     5.5   955.8    0.00 
 147    6:30   0.08   47.5    86    3.0   243     5.6   955.9    0.00 
 147    6:40   0.08   47.7    86    3.2   247     6.3   956.0    0.00 
 147    6:50   0.11   47.7    86    2.5   269     5.6   956.0    0.00 
 147    7:00   0.11   48.8    83    1.2   263     4.4   956.0    0.00 
 147    7:10   0.20   48.7    83    3.9   245     8.6   956.0    0.00 
 147    7:20   0.21   48.5    83    3.6   243     5.7   956.0    0.00 
 147    7:30   0.29   49.3    82    3.4   237     7.8   956.0    0.00 
 147    7:40   0.38   50.7    78    2.7   241     5.7   956.0    0.00 
 147    7:50   0.43   52.5    74    2.1   253     6.0   956.0    0.00 
 147    8:00   0.46   53.2    72    2.3   251     6.8   956.1    0.00 
 147    8:10   0.49   53.7    70    2.7   248     7.3   956.1    0.00 
 147    8:20   0.52   54.2    68    3.1   245     6.4   956.0    0.00 
 147    8:30   0.54   55.0    66    2.5   239     5.2   955.9    0.00 
 147    8:40   0.57   58.0    60    1.3   360     4.2   955.7    0.00 
 147    8:50   0.60   58.8    58    2.0   244     7.3   955.6    0.00 
 147    9:00   0.63   58.5    59    3.4   258     7.5   955.5    0.00 
 147    9:10   0.65   60.2    56    1.7   292     5.4   955.4    0.00 
 147    9:20   0.66   60.1    55    3.3   257     8.8   955.3    0.00 
 147    9:30   0.70   59.4    56    3.6   245     9.5   955.3    0.00 
 147    9:40   0.72   60.4    55    4.9   240    11.0   955.3    0.00 
 147    9:50   0.74   61.8    52    3.5   256     8.1   955.3    0.00 
 147   10:00   0.76   61.2    52    4.5   248    12.0   955.2    0.00 
 147   10:10   0.79   63.5    50    2.6   274     7.9   955.1    0.00 
 147   10:20   0.80   63.9    50    3.8   255     7.7   955.1    0.00 
 147   10:30   0.82   65.2    48    2.5   280    10.7   955.1    0.00 
 147   10:40   0.80   66.6    45    2.6   286     6.9   954.9    0.00 
 147   10:50   0.85   65.7    45    3.4   252    10.4   954.8    0.00 
 147   11:00   0.86   67.1    44    2.4   270     6.6   954.8    0.00 
 147   11:10   0.87   67.7    43    1.5   314     4.7   954.7    0.00 
 147   11:20   0.88   68.6    41    2.7   260     8.9   954.6    0.00 
 147   11:30   0.89   67.9    44    3.4   264     9.9   954.6    0.00 
 147   11:40   0.89   67.7    45    3.5   254    10.0   954.6    0.00 
 147   11:50   0.89   67.3    46    4.6   243     9.7   954.4    0.00 
 147   12:00   0.91   69.6    43    3.4   296     9.6   954.4    0.00 
 147   12:10   0.91   69.0    44    4.1   301    12.9   954.3    0.00 
 147   12:20   0.91   69.6    42    3.6   305    11.6   954.2    0.00 
 147   12:30   0.91   69.7    42    3.9   258    10.1   954.2    0.00 
 147   12:40   0.90   68.3    44    6.7   248    12.3   954.1    0.00 
 147   12:50   0.90   69.2    45    4.0   270    10.2   954.1    0.00 
 147   13:00   0.89   70.8    44    2.5   336     8.2   954.2    0.00 
 147   13:10   0.89   70.9    44    4.0   281    10.4   954.1    0.00 
 147   13:20   0.88   69.6    46    5.2   250    11.9   954.0    0.00 
 147   13:30   0.87   68.4    48    5.2   250    10.4   954.0    0.00 
 147   13:40   0.86   69.8    45    3.4   258     9.3   953.9    0.00 
 147   13:50   0.85   69.5    45    4.3   251    10.2   953.8    0.00 
 147   14:00   0.84   69.4    44    4.6   252    10.8   953.8    0.00 
 147   14:10   0.82   71.2    43    2.9   268     8.9   953.8    0.00 
 147   14:20   0.81   71.2    44    4.1   250    11.0   953.8    0.00 

Return to Hastings Natural History Reservation graphs page.


Western Regional Climate Center,wrcc@dri.edu